sensor_id;sensor_type;location;lat;lon;timestamp;P1;durP1;ratioP1;P2;durP2;ratioP2
11865;SDS011;5992;52.744;6.898;2022-08-11T00:03:22;2.25;;;2.05;;
11865;SDS011;5992;52.744;6.898;2022-08-11T00:06:37;2.00;;;1.85;;
11865;SDS011;5992;52.744;6.898;2022-08-11T00:10:24;2.83;;;1.93;;
11865;SDS011;5992;52.744;6.898;2022-08-11T00:13:41;2.23;;;1.97;;
11865;SDS011;5992;52.744;6.898;2022-08-11T00:17:17;2.83;;;2.20;;
11865;SDS011;5992;52.744;6.898;2022-08-11T00:20:34;2.00;;;1.80;;
11865;SDS011;5992;52.744;6.898;2022-08-11T00:24:05;3.63;;;2.80;;
11865;SDS011;5992;52.744;6.898;2022-08-11T00:27:30;2.90;;;2.45;;
11865;SDS011;5992;52.744;6.898;2022-08-11T00:31:03;3.50;;;2.57;;
11865;SDS011;5992;52.744;6.898;2022-08-11T00:37:46;2.10;;;1.90;;
11865;SDS011;5992;52.744;6.898;2022-08-11T00:47:42;2.10;;;2.00;;
11865;SDS011;5992;52.744;6.898;2022-08-11T00:50:59;2.83;;;2.07;;
11865;SDS011;5992;52.744;6.898;2022-08-11T00:54:40;3.43;;;2.73;;
11865;SDS011;5992;52.744;6.898;2022-08-11T01:01:54;2.70;;;2.50;;
11865;SDS011;5992;52.744;6.898;2022-08-11T01:15:32;5.40;;;4.07;;
11865;SDS011;5992;52.744;6.898;2022-08-11T01:22:18;4.05;;;2.95;;
11865;SDS011;5992;52.744;6.898;2022-08-11T01:25:49;2.60;;;2.40;;
11865;SDS011;5992;52.744;6.898;2022-08-11T01:39:55;4.70;;;3.83;;
11865;SDS011;5992;52.744;6.898;2022-08-11T01:43:38;2.50;;;2.30;;
11865;SDS011;5992;52.744;6.898;2022-08-11T01:47:04;2.63;;;2.43;;
11865;SDS011;5992;52.744;6.898;2022-08-11T01:53:50;3.03;;;2.83;;
11865;SDS011;5992;52.744;6.898;2022-08-11T01:57:25;3.27;;;2.93;;
11865;SDS011;5992;52.744;6.898;2022-08-11T02:00:44;3.57;;;3.33;;
11865;SDS011;5992;52.744;6.898;2022-08-11T02:04:17;4.77;;;4.27;;
11865;SDS011;5992;52.744;6.898;2022-08-11T02:07:37;3.90;;;3.60;;
11865;SDS011;5992;52.744;6.898;2022-08-11T02:11:18;4.00;;;3.55;;
11865;SDS011;5992;52.744;6.898;2022-08-11T02:14:36;4.47;;;4.00;;
11865;SDS011;5992;52.744;6.898;2022-08-11T02:18:07;5.37;;;3.63;;
11865;SDS011;5992;52.744;6.898;2022-08-11T02:21:23;3.70;;;3.40;;
11865;SDS011;5992;52.744;6.898;2022-08-11T02:24:56;5.00;;;3.37;;
11865;SDS011;5992;52.744;6.898;2022-08-11T02:28:17;4.83;;;3.50;;
11865;SDS011;5992;52.744;6.898;2022-08-11T02:31:57;4.75;;;4.35;;
11865;SDS011;5992;52.744;6.898;2022-08-11T02:35:21;5.23;;;3.97;;
11865;SDS011;5992;52.744;6.898;2022-08-11T02:38:54;4.77;;;4.30;;
11865;SDS011;5992;52.744;6.898;2022-08-11T02:42:10;5.93;;;4.30;;
11865;SDS011;5992;52.744;6.898;2022-08-11T02:45:52;4.33;;;3.97;;
11865;SDS011;5992;52.744;6.898;2022-08-11T02:49:10;3.85;;;3.30;;
11865;SDS011;5992;52.744;6.898;2022-08-11T02:52:49;5.50;;;3.75;;
11865;SDS011;5992;52.744;6.898;2022-08-11T02:56:05;6.83;;;4.70;;
11865;SDS011;5992;52.744;6.898;2022-08-11T02:59:39;5.80;;;4.30;;
11865;SDS011;5992;52.744;6.898;2022-08-11T03:02:59;4.23;;;3.83;;
11865;SDS011;5992;52.744;6.898;2022-08-11T03:06:34;2.65;;;2.45;;
11865;SDS011;5992;52.744;6.898;2022-08-11T03:09:53;6.13;;;5.00;;
11865;SDS011;5992;52.744;6.898;2022-08-11T03:13:27;2.90;;;2.60;;
11865;SDS011;5992;52.744;6.898;2022-08-11T03:16:44;2.50;;;2.30;;
11865;SDS011;5992;52.744;6.898;2022-08-11T03:20:18;2.63;;;2.43;;
11865;SDS011;5992;52.744;6.898;2022-08-11T03:23:36;3.17;;;2.90;;
11865;SDS011;5992;52.744;6.898;2022-08-11T03:27:07;2.75;;;2.45;;
11865;SDS011;5992;52.744;6.898;2022-08-11T03:30:24;2.73;;;2.53;;
11865;SDS011;5992;52.744;6.898;2022-08-11T03:33:57;5.97;;;3.73;;
11865;SDS011;5992;52.744;6.898;2022-08-11T03:37:18;2.40;;;2.20;;
11865;SDS011;5992;52.744;6.898;2022-08-11T03:41:12;2.20;;;2.00;;
11865;SDS011;5992;52.744;6.898;2022-08-11T03:45:04;2.50;;;2.30;;
11865;SDS011;5992;52.744;6.898;2022-08-11T03:48:36;2.70;;;2.43;;
11865;SDS011;5992;52.744;6.898;2022-08-11T03:51:52;4.37;;;3.93;;
11865;SDS011;5992;52.744;6.898;2022-08-11T03:55:31;3.10;;;2.33;;
11865;SDS011;5992;52.744;6.898;2022-08-11T03:59:01;2.23;;;2.10;;
11865;SDS011;5992;52.744;6.898;2022-08-11T04:13:08;2.67;;;2.30;;
11865;SDS011;5992;52.744;6.898;2022-08-11T04:16:42;2.97;;;2.50;;
11865;SDS011;5992;52.744;6.898;2022-08-11T04:20:15;2.80;;;2.20;;
11865;SDS011;5992;52.744;6.898;2022-08-11T04:27:20;4.50;;;2.70;;
11865;SDS011;5992;52.744;6.898;2022-08-11T04:30:43;4.20;;;2.75;;
11865;SDS011;5992;52.744;6.898;2022-08-11T04:41:12;2.60;;;2.40;;
11865;SDS011;5992;52.744;6.898;2022-08-11T04:48:03;2.65;;;2.45;;
11865;SDS011;5992;52.744;6.898;2022-08-11T04:51:38;6.83;;;5.80;;
11865;SDS011;5992;52.744;6.898;2022-08-11T04:55:21;3.00;;;2.80;;
11865;SDS011;5992;52.744;6.898;2022-08-11T05:01:50;2.50;;;2.30;;
11865;SDS011;5992;52.744;6.898;2022-08-11T05:05:21;3.95;;;3.65;;
11865;SDS011;5992;52.744;6.898;2022-08-11T05:08:48;4.75;;;3.60;;
11865;SDS011;5992;52.744;6.898;2022-08-11T05:12:25;5.30;;;4.80;;
11865;SDS011;5992;52.744;6.898;2022-08-11T05:15:42;5.90;;;3.50;;
11865;SDS011;5992;52.744;6.898;2022-08-11T05:19:16;6.57;;;2.53;;
11865;SDS011;5992;52.744;6.898;2022-08-11T05:22:37;3.97;;;2.90;;
11865;SDS011;5992;52.744;6.898;2022-08-11T05:26:17;4.37;;;3.97;;
11865;SDS011;5992;52.744;6.898;2022-08-11T05:29:38;5.00;;;4.60;;
11865;SDS011;5992;52.744;6.898;2022-08-11T05:33:16;7.67;;;4.20;;
11865;SDS011;5992;52.744;6.898;2022-08-11T05:36:38;3.60;;;3.30;;
11865;SDS011;5992;52.744;6.898;2022-08-11T05:40:08;3.60;;;3.30;;
11865;SDS011;5992;52.744;6.898;2022-08-11T05:43:29;4.17;;;3.43;;
11865;SDS011;5992;52.744;6.898;2022-08-11T05:47:08;5.13;;;4.03;;
11865;SDS011;5992;52.744;6.898;2022-08-11T05:50:29;3.45;;;3.15;;
11865;SDS011;5992;52.744;6.898;2022-08-11T05:53:55;4.00;;;3.60;;
11865;SDS011;5992;52.744;6.898;2022-08-11T05:57:19;4.47;;;3.17;;
11865;SDS011;5992;52.744;6.898;2022-08-11T06:00:52;4.70;;;4.17;;
11865;SDS011;5992;52.744;6.898;2022-08-11T06:04:23;3.53;;;2.90;;
11865;SDS011;5992;52.744;6.898;2022-08-11T06:07:40;4.23;;;3.53;;
11865;SDS011;5992;52.744;6.898;2022-08-11T06:11:09;2.70;;;2.50;;
11865;SDS011;5992;52.744;6.898;2022-08-11T06:14:32;2.65;;;2.45;;
11865;SDS011;5992;52.744;6.898;2022-08-11T06:18:01;2.50;;;2.10;;
11865;SDS011;5992;52.744;6.898;2022-08-11T06:21:17;5.80;;;3.33;;
11865;SDS011;5992;52.744;6.898;2022-08-11T06:24:50;4.80;;;3.10;;
11865;SDS011;5992;52.744;6.898;2022-08-11T06:28:06;3.87;;;3.43;;
11865;SDS011;5992;52.744;6.898;2022-08-11T06:31:39;3.50;;;3.20;;
11865;SDS011;5992;52.744;6.898;2022-08-11T06:34:57;2.70;;;2.50;;
11865;SDS011;5992;52.744;6.898;2022-08-11T06:44:25;3.73;;;3.43;;
11865;SDS011;5992;52.744;6.898;2022-08-11T06:50:59;3.33;;;3.03;;
11865;SDS011;5992;52.744;6.898;2022-08-11T06:54:31;10.00;;;3.33;;
11865;SDS011;5992;52.744;6.898;2022-08-11T06:57:48;3.30;;;2.65;;
11865;SDS011;5992;52.744;6.898;2022-08-11T07:01:31;3.90;;;3.45;;
11865;SDS011;5992;52.744;6.898;2022-08-11T07:04:53;4.87;;;3.20;;
11865;SDS011;5992;52.744;6.898;2022-08-11T07:15:11;2.50;;;2.30;;
11865;SDS011;5992;52.744;6.898;2022-08-11T07:18:47;4.85;;;2.75;;
11865;SDS011;5992;52.744;6.898;2022-08-11T07:22:22;3.93;;;2.50;;
11865;SDS011;5992;52.744;6.898;2022-08-11T07:25:46;3.13;;;2.33;;
11865;SDS011;5992;52.744;6.898;2022-08-11T07:35:14;3.07;;;2.57;;
11865;SDS011;5992;52.744;6.898;2022-08-11T07:38:33;8.15;;;2.75;;
11865;SDS011;5992;52.744;6.898;2022-08-11T07:42:05;3.85;;;2.20;;
11865;SDS011;5992;52.744;6.898;2022-08-11T07:45:20;2.03;;;1.83;;
11865;SDS011;5992;52.744;6.898;2022-08-11T07:49:00;1.93;;;1.80;;
11865;SDS011;5992;52.744;6.898;2022-08-11T07:52:27;1.60;;;1.50;;
11865;SDS011;5992;52.744;6.898;2022-08-11T07:55:59;2.93;;;1.77;;
11865;SDS011;5992;52.744;6.898;2022-08-11T07:59:15;1.80;;;1.67;;
11865;SDS011;5992;52.744;6.898;2022-08-11T08:02:36;1.87;;;1.77;;
11865;SDS011;5992;52.744;6.898;2022-08-11T08:06:12;1.93;;;1.80;;
11865;SDS011;5992;52.744;6.898;2022-08-11T08:09:27;1.70;;;1.60;;
11865;SDS011;5992;52.744;6.898;2022-08-11T08:13:06;2.47;;;1.70;;
11865;SDS011;5992;52.744;6.898;2022-08-11T08:16:29;8.07;;;2.40;;
11865;SDS011;5992;52.744;6.898;2022-08-11T08:20:21;2.60;;;2.00;;
11865;SDS011;5992;52.744;6.898;2022-08-11T08:24:07;2.43;;;1.47;;
11865;SDS011;5992;52.744;6.898;2022-08-11T08:27:43;2.55;;;1.70;;
11865;SDS011;5992;52.744;6.898;2022-08-11T08:31:01;3.45;;;1.30;;
11865;SDS011;5992;52.744;6.898;2022-08-11T08:34:17;4.10;;;1.90;;
11865;SDS011;5992;52.744;6.898;2022-08-11T08:37:37;2.17;;;1.40;;
11865;SDS011;5992;52.744;6.898;2022-08-11T08:41:11;2.20;;;1.07;;
11865;SDS011;5992;52.744;6.898;2022-08-11T08:44:31;4.43;;;1.60;;
11865;SDS011;5992;52.744;6.898;2022-08-11T08:48:02;1.60;;;1.40;;
11865;SDS011;5992;52.744;6.898;2022-08-11T08:51:17;2.35;;;1.20;;
11865;SDS011;5992;52.744;6.898;2022-08-11T08:54:55;6.67;;;1.50;;
11865;SDS011;5992;52.744;6.898;2022-08-11T08:58:11;2.73;;;1.20;;
11865;SDS011;5992;52.744;6.898;2022-08-11T09:01:45;1.77;;;1.10;;
11865;SDS011;5992;52.744;6.898;2022-08-11T09:05:00;1.60;;;1.50;;
11865;SDS011;5992;52.744;6.898;2022-08-11T09:08:31;2.00;;;1.40;;
11865;SDS011;5992;52.744;6.898;2022-08-11T09:11:47;1.60;;;1.10;;
11865;SDS011;5992;52.744;6.898;2022-08-11T09:15:18;1.50;;;1.30;;
11865;SDS011;5992;52.744;6.898;2022-08-11T09:21:55;4.85;;;1.50;;
11865;SDS011;5992;52.744;6.898;2022-08-11T10:03:06;1.35;;;1.25;;
11865;SDS011;5992;52.744;6.898;2022-08-11T10:09:27;1.90;;;1.20;;
11865;SDS011;5992;52.744;6.898;2022-08-11T10:15:59;4.05;;;1.45;;
11865;SDS011;5992;52.744;6.898;2022-08-11T10:19:29;2.90;;;1.55;;
11865;SDS011;5992;52.744;6.898;2022-08-11T10:22:48;1.15;;;1.15;;
11865;SDS011;5992;52.744;6.898;2022-08-11T10:26:23;1.33;;;1.03;;
11865;SDS011;5992;52.744;6.898;2022-08-11T10:29:55;3.17;;;1.25;;
11865;SDS011;5992;52.744;6.898;2022-08-11T10:33:29;2.53;;;1.83;;
11865;SDS011;5992;52.744;6.898;2022-08-11T10:37:04;2.25;;;1.55;;
11865;SDS011;5992;52.744;6.898;2022-08-11T10:40:35;1.60;;;1.50;;
11865;SDS011;5992;52.744;6.898;2022-08-11T10:43:53;1.57;;;1.10;;
11865;SDS011;5992;52.744;6.898;2022-08-11T10:47:09;1.58;;;1.48;;
11865;SDS011;5992;52.744;6.898;2022-08-11T10:50:39;1.05;;;1.05;;
11865;SDS011;5992;52.744;6.898;2022-08-11T10:54:16;1.60;;;1.50;;
11865;SDS011;5992;52.744;6.898;2022-08-11T11:00:43;1.70;;;1.60;;
11865;SDS011;5992;52.744;6.898;2022-08-11T11:04:15;1.73;;;1.62;;
11865;SDS011;5992;52.744;6.898;2022-08-11T11:07:35;2.05;;;1.30;;
11865;SDS011;5992;52.744;6.898;2022-08-11T11:11:10;1.33;;;1.23;;
11865;SDS011;5992;52.744;6.898;2022-08-11T11:14:33;1.20;;;1.20;;
11865;SDS011;5992;52.744;6.898;2022-08-11T11:18:06;1.45;;;1.30;;
11865;SDS011;5992;52.744;6.898;2022-08-11T11:21:22;1.98;;;1.40;;
11865;SDS011;5992;52.744;6.898;2022-08-11T11:24:53;3.25;;;1.20;;
11865;SDS011;5992;52.744;6.898;2022-08-11T11:28:18;1.30;;;1.12;;
11865;SDS011;5992;52.744;6.898;2022-08-11T11:31:47;1.40;;;1.35;;
11865;SDS011;5992;52.744;6.898;2022-08-11T11:35:10;1.10;;;1.00;;
11865;SDS011;5992;52.744;6.898;2022-08-11T11:38:42;2.47;;;1.48;;
11865;SDS011;5992;52.744;6.898;2022-08-11T11:42:02;1.08;;;1.00;;
11865;SDS011;5992;52.744;6.898;2022-08-11T11:45:31;1.67;;;1.17;;
11865;SDS011;5992;52.744;6.898;2022-08-11T11:49:02;6.07;;;1.60;;
11865;SDS011;5992;52.744;6.898;2022-08-11T11:52:31;3.92;;;1.73;;
11865;SDS011;5992;52.744;6.898;2022-08-11T11:55:47;1.17;;;1.08;;
11865;SDS011;5992;52.744;6.898;2022-08-11T11:59:16;1.30;;;1.20;;
11865;SDS011;5992;52.744;6.898;2022-08-11T12:02:46;1.27;;;1.17;;
11865;SDS011;5992;52.744;6.898;2022-08-11T12:06:18;5.62;;;1.10;;
11865;SDS011;5992;52.744;6.898;2022-08-11T12:09:33;2.53;;;1.20;;
11865;SDS011;5992;52.744;6.898;2022-08-11T12:13:08;2.95;;;1.27;;
11865;SDS011;5992;52.744;6.898;2022-08-11T12:16:31;2.65;;;1.35;;
11865;SDS011;5992;52.744;6.898;2022-08-11T12:20:04;3.50;;;1.30;;
11865;SDS011;5992;52.744;6.898;2022-08-11T12:23:21;1.42;;;1.30;;
11865;SDS011;5992;52.744;6.898;2022-08-11T12:29:59;1.10;;;1.10;;
11865;SDS011;5992;52.744;6.898;2022-08-11T12:33:29;1.90;;;1.33;;
11865;SDS011;5992;52.744;6.898;2022-08-11T12:36:52;1.00;;;1.00;;
11865;SDS011;5992;52.744;6.898;2022-08-11T12:40:22;1.42;;;1.33;;
11865;SDS011;5992;52.744;6.898;2022-08-11T12:43:44;2.78;;;1.20;;
11865;SDS011;5992;52.744;6.898;2022-08-11T12:53:21;1.70;;;1.40;;
11865;SDS011;5992;52.744;6.898;2022-08-11T12:56:54;1.48;;;1.37;;
11865;SDS011;5992;52.744;6.898;2022-08-11T13:00:13;1.27;;;1.17;;
11865;SDS011;5992;52.744;6.898;2022-08-11T13:03:49;1.30;;;1.20;;
11865;SDS011;5992;52.744;6.898;2022-08-11T13:10:14;1.20;;;1.10;;
11865;SDS011;5992;52.744;6.898;2022-08-11T13:13:44;1.27;;;1.27;;
11865;SDS011;5992;52.744;6.898;2022-08-11T13:16:59;1.80;;;1.43;;
11865;SDS011;5992;52.744;6.898;2022-08-11T13:20:39;1.10;;;1.10;;
11865;SDS011;5992;52.744;6.898;2022-08-11T13:23:55;1.00;;;1.00;;
11865;SDS011;5992;52.744;6.898;2022-08-11T13:27:26;2.92;;;1.30;;
11865;SDS011;5992;52.744;6.898;2022-08-11T13:30:44;1.20;;;1.20;;
11865;SDS011;5992;52.744;6.898;2022-08-11T13:34:33;1.67;;;1.52;;
11865;SDS011;5992;52.744;6.898;2022-08-11T13:40:53;2.57;;;1.53;;
11865;SDS011;5992;52.744;6.898;2022-08-11T13:44:28;1.20;;;1.10;;
11865;SDS011;5992;52.744;6.898;2022-08-11T13:47:43;1.90;;;1.15;;
11865;SDS011;5992;52.744;6.898;2022-08-11T13:51:14;1.37;;;1.27;;
11865;SDS011;5992;52.744;6.898;2022-08-11T13:54:46;1.00;;;1.00;;
11865;SDS011;5992;52.744;6.898;2022-08-11T13:58:54;1.12;;;1.12;;
11865;SDS011;5992;52.744;6.898;2022-08-11T14:02:16;2.10;;;1.25;;
11865;SDS011;5992;52.744;6.898;2022-08-11T14:05:53;2.12;;;1.10;;
11865;SDS011;5992;52.744;6.898;2022-08-11T14:09:12;1.02;;;1.02;;
11865;SDS011;5992;52.744;6.898;2022-08-11T14:15:47;1.25;;;1.15;;
11865;SDS011;5992;52.744;6.898;2022-08-11T14:19:23;1.30;;;1.20;;
11865;SDS011;5992;52.744;6.898;2022-08-11T14:22:45;1.52;;;1.40;;
11865;SDS011;5992;52.744;6.898;2022-08-11T14:26:15;1.40;;;0.90;;
11865;SDS011;5992;52.744;6.898;2022-08-11T14:29:33;1.17;;;1.17;;
11865;SDS011;5992;52.744;6.898;2022-08-11T14:33:08;1.75;;;1.42;;
11865;SDS011;5992;52.744;6.898;2022-08-11T14:36:29;2.22;;;1.20;;
11865;SDS011;5992;52.744;6.898;2022-08-11T14:40:04;0.90;;;0.90;;
11865;SDS011;5992;52.744;6.898;2022-08-11T14:43:20;1.40;;;1.10;;
11865;SDS011;5992;52.744;6.898;2022-08-11T14:46:56;1.55;;;1.20;;
11865;SDS011;5992;52.744;6.898;2022-08-11T14:50:13;1.23;;;1.07;;
11865;SDS011;5992;52.744;6.898;2022-08-11T14:59:59;1.33;;;1.10;;
11865;SDS011;5992;52.744;6.898;2022-08-11T15:03:35;1.02;;;1.02;;
11865;SDS011;5992;52.744;6.898;2022-08-11T15:06:53;1.15;;;1.12;;
11865;SDS011;5992;52.744;6.898;2022-08-11T15:10:12;1.55;;;1.10;;
11865;SDS011;5992;52.744;6.898;2022-08-11T15:16:33;1.40;;;1.30;;
11865;SDS011;5992;52.744;6.898;2022-08-11T15:20:14;0.98;;;0.93;;
11865;SDS011;5992;52.744;6.898;2022-08-11T15:23:37;2.53;;;1.12;;
11865;SDS011;5992;52.744;6.898;2022-08-11T15:27:16;1.05;;;0.90;;
11865;SDS011;5992;52.744;6.898;2022-08-11T15:30:39;1.70;;;1.27;;
11865;SDS011;5992;52.744;6.898;2022-08-11T15:34:18;1.17;;;1.10;;
11865;SDS011;5992;52.744;6.898;2022-08-11T15:37:39;1.10;;;1.10;;
11865;SDS011;5992;52.744;6.898;2022-08-11T15:41:15;2.62;;;1.23;;
11865;SDS011;5992;52.744;6.898;2022-08-11T15:44:40;1.08;;;1.08;;
11865;SDS011;5992;52.744;6.898;2022-08-11T15:51:24;1.33;;;1.23;;
11865;SDS011;5992;52.744;6.898;2022-08-11T15:54:50;4.65;;;1.55;;
11865;SDS011;5992;52.744;6.898;2022-08-11T15:58:06;1.30;;;1.30;;
11865;SDS011;5992;52.744;6.898;2022-08-11T16:01:42;1.92;;;1.30;;
11865;SDS011;5992;52.744;6.898;2022-08-11T16:05:31;2.83;;;1.35;;
11865;SDS011;5992;52.744;6.898;2022-08-11T16:08:51;1.37;;;1.20;;
11865;SDS011;5992;52.744;6.898;2022-08-11T16:12:25;1.33;;;1.30;;
11865;SDS011;5992;52.744;6.898;2022-08-11T16:15:43;1.37;;;1.30;;
11865;SDS011;5992;52.744;6.898;2022-08-11T16:19:17;1.48;;;1.20;;
11865;SDS011;5992;52.744;6.898;2022-08-11T16:22:37;1.17;;;1.12;;
11865;SDS011;5992;52.744;6.898;2022-08-11T16:26:06;3.40;;;1.23;;
11865;SDS011;5992;52.744;6.898;2022-08-11T16:29:25;0.98;;;0.98;;
11865;SDS011;5992;52.744;6.898;2022-08-11T16:32:56;1.27;;;1.17;;
11865;SDS011;5992;52.744;6.898;2022-08-11T16:36:12;2.97;;;1.40;;
11865;SDS011;5992;52.744;6.898;2022-08-11T16:39:45;2.03;;;1.62;;
11865;SDS011;5992;52.744;6.898;2022-08-11T16:43:02;1.35;;;1.30;;
11865;SDS011;5992;52.744;6.898;2022-08-11T16:46:40;1.50;;;1.40;;
11865;SDS011;5992;52.744;6.898;2022-08-11T16:50:04;1.50;;;1.40;;
11865;SDS011;5992;52.744;6.898;2022-08-11T16:53:41;1.20;;;1.20;;
11865;SDS011;5992;52.744;6.898;2022-08-11T17:00:17;3.65;;;1.62;;
11865;SDS011;5992;52.744;6.898;2022-08-11T17:03:37;1.58;;;1.50;;
11865;SDS011;5992;52.744;6.898;2022-08-11T17:07:12;1.90;;;1.80;;
11865;SDS011;5992;52.744;6.898;2022-08-11T17:10:39;1.77;;;1.67;;
11865;SDS011;5992;52.744;6.898;2022-08-11T17:14:18;1.30;;;1.20;;
11865;SDS011;5992;52.744;6.898;2022-08-11T17:17:34;1.85;;;1.37;;
11865;SDS011;5992;52.744;6.898;2022-08-11T17:21:01;3.92;;;1.50;;
11865;SDS011;5992;52.744;6.898;2022-08-11T17:24:17;1.65;;;1.27;;
11865;SDS011;5992;52.744;6.898;2022-08-11T17:27:47;3.17;;;1.60;;
11865;SDS011;5992;52.744;6.898;2022-08-11T17:34:36;1.55;;;1.42;;
11865;SDS011;5992;52.744;6.898;2022-08-11T17:41:06;3.03;;;2.77;;
11865;SDS011;5992;52.744;6.898;2022-08-11T17:44:29;3.03;;;2.15;;
11865;SDS011;5992;52.744;6.898;2022-08-11T17:48:08;3.72;;;2.40;;
11865;SDS011;5992;52.744;6.898;2022-08-11T17:54:32;2.92;;;2.20;;
11865;SDS011;5992;52.744;6.898;2022-08-11T17:58:06;2.30;;;2.10;;
11865;SDS011;5992;52.744;6.898;2022-08-11T18:01:36;2.12;;;2.00;;
11865;SDS011;5992;52.744;6.898;2022-08-11T18:05:07;2.50;;;1.92;;
11865;SDS011;5992;52.744;6.898;2022-08-11T18:08:23;2.22;;;1.85;;
11865;SDS011;5992;52.744;6.898;2022-08-11T18:11:58;2.17;;;1.75;;
11865;SDS011;5992;52.744;6.898;2022-08-11T18:15:19;3.90;;;2.12;;
11865;SDS011;5992;52.744;6.898;2022-08-11T18:18:55;6.40;;;2.05;;
11865;SDS011;5992;52.744;6.898;2022-08-11T18:22:48;2.77;;;1.70;;
11865;SDS011;5992;52.744;6.898;2022-08-11T18:32:44;1.60;;;1.50;;
11865;SDS011;5992;52.744;6.898;2022-08-11T18:36:07;1.83;;;1.70;;
11865;SDS011;5992;52.744;6.898;2022-08-11T18:43:04;3.20;;;2.90;;
11865;SDS011;5992;52.744;6.898;2022-08-11T18:46:41;1.65;;;1.55;;
11865;SDS011;5992;52.744;6.898;2022-08-11T18:50:04;1.95;;;1.80;;
11865;SDS011;5992;52.744;6.898;2022-08-11T18:53:46;2.90;;;1.70;;
11865;SDS011;5992;52.744;6.898;2022-08-11T19:07:05;1.60;;;1.50;;
11865;SDS011;5992;52.744;6.898;2022-08-11T20:02:59;1.60;;;1.50;;
11865;SDS011;5992;52.744;6.898;2022-08-11T20:12:47;1.60;;;1.50;;
11865;SDS011;5992;52.744;6.898;2022-08-11T20:19:33;1.70;;;1.60;;
11865;SDS011;5992;52.744;6.898;2022-08-11T20:26:17;1.80;;;1.70;;
11865;SDS011;5992;52.744;6.898;2022-08-11T20:29:54;1.70;;;1.60;;
11865;SDS011;5992;52.744;6.898;2022-08-11T20:33:14;1.50;;;1.40;;
11865;SDS011;5992;52.744;6.898;2022-08-11T20:36:49;2.40;;;2.00;;
11865;SDS011;5992;52.744;6.898;2022-08-11T20:40:09;2.53;;;2.10;;
11865;SDS011;5992;52.744;6.898;2022-08-11T20:43:49;5.47;;;2.27;;
11865;SDS011;5992;52.744;6.898;2022-08-11T20:46:57;1.63;;;1.53;;
11865;SDS011;5992;52.744;6.898;2022-08-11T20:50:21;1.80;;;1.70;;
11865;SDS011;5992;52.744;6.898;2022-08-11T20:53:44;2.10;;;1.60;;
11865;SDS011;5992;52.744;6.898;2022-08-11T20:57:22;1.90;;;1.80;;
11865;SDS011;5992;52.744;6.898;2022-08-11T21:00:45;1.50;;;1.40;;
11865;SDS011;5992;52.744;6.898;2022-08-11T21:04:19;3.40;;;1.63;;
11865;SDS011;5992;52.744;6.898;2022-08-11T21:07:43;1.97;;;1.80;;
11865;SDS011;5992;52.744;6.898;2022-08-11T21:11:19;1.37;;;1.37;;
11865;SDS011;5992;52.744;6.898;2022-08-11T21:14:43;1.70;;;1.60;;
11865;SDS011;5992;52.744;6.898;2022-08-11T21:18:19;4.73;;;1.77;;
11865;SDS011;5992;52.744;6.898;2022-08-11T23:42:11;2.37;;;1.60;;
11865;SDS011;5992;52.744;6.898;2022-08-11T23:45:51;2.00;;;1.90;;
11865;SDS011;5992;52.744;6.898;2022-08-11T23:49:12;3.27;;;2.07;;
11865;SDS011;5992;52.744;6.898;2022-08-11T23:52:48;3.17;;;2.20;;
11865;SDS011;5992;52.744;6.898;2022-08-11T23:56:09;2.57;;;2.40;;
11865;SDS011;5992;52.744;6.898;2022-08-11T23:59:44;3.37;;;1.93;;
